Time;durP1;ratioP1;P1;durP2;ratioP2;P2;SDS_P1;SDS_P2;PMS_P1;PMS_P2;Temp;Humidity;BMP_temperature;BMP_pressure;BME280_temperature;BME280_humidity;BME280_pressure;Samples;Min_cycle;Max_cycle;Signal;HPM_P1;HPM_P2
2022/08/31 00:04:40;;;;;;;;;;;17.00;99.90;;;;;;5073572;28;19919;-78
2022/08/31 00:07:06;;;;;;;;;;;16.90;99.90;;;;;;5055311;28;19924;-76
2022/08/31 00:09:31;;;;;;;;;;;16.90;99.90;;;;;;5072176;28;19917;-76
2022/08/31 00:11:58;;;;;;;;;;;16.90;99.90;;;;;;5074054;28;20326;-76
2022/08/31 00:14:23;;;;;;;;;;;16.90;99.90;;;;;;5072763;28;20215;-77
2022/08/31 00:16:49;;;;;;;;;;;16.80;99.90;;;;;;5070376;28;20053;-75
2022/08/31 00:19:14;;;;;;;;;;;16.80;99.90;;;;;;5072716;28;19921;-75
2022/08/31 00:21:40;;;;;;;;;;;16.80;99.90;;;;;;5071829;28;19943;-76
2022/08/31 00:24:06;;;;;;;;;;;16.80;99.90;;;;;;5071747;28;19916;-75
2022/08/31 00:26:31;;;;;;;;;;;16.80;99.90;;;;;;5071284;28;19919;-75
2022/08/31 00:28:57;;;;;;;;;;;16.80;99.90;;;;;;5074531;28;20311;-76
2022/08/31 00:31:22;;;;;;;;;;;16.80;99.90;;;;;;5065037;28;19917;-76
2022/08/31 00:33:51;;;;;;;;;;;16.70;99.90;;;;;;5068068;28;19920;-78
2022/08/31 00:36:18;;;;;;;;;;;16.70;99.90;;;;;;5071990;28;20321;-78
2022/08/31 00:38:43;;;;;;;;;;;16.70;99.90;;;;;;5071520;28;20369;-82
2022/08/31 00:41:09;;;;;;;;;;;16.70;99.90;;;;;;5059843;28;19913;-75
2022/08/31 00:43:40;;;;;;;;;;;16.70;99.90;;;;;;5054190;28;19916;-75
2022/08/31 00:46:07;;;;;;;;;;;16.60;99.90;;;;;;5049415;28;19924;-75
2022/08/31 00:48:33;;;;;;;;;;;16.60;99.90;;;;;;5050845;28;19920;-76
2022/08/31 00:50:59;;;;;;;;;;;16.60;99.90;;;;;;5078630;28;19949;-75
2022/08/31 00:53:25;;;;;;;;;;;16.50;99.90;;;;;;5074734;28;21764;-76
2022/08/31 00:55:50;;;;;;;;;;;16.50;99.90;;;;;;5077452;28;19913;-77
2022/08/31 00:58:16;;;;;;;;;;;16.50;99.90;;;;;;5073938;28;19909;-75
2022/08/31 01:00:43;;;;;;;;;;;16.60;99.90;;;;;;5078014;28;20291;-75
2022/08/31 01:03:08;;;;;;;;;;;16.50;99.90;;;;;;5059682;28;19916;-76
2022/08/31 01:05:34;;;;;;;;;;;16.50;99.90;;;;;;5077448;28;19916;-81
2022/08/31 01:08:01;;;;;;;;;;;16.50;99.90;;;;;;5077764;28;19927;-74
2022/08/31 01:10:29;;;;;;;;;;;16.50;99.90;;;;;;5058575;28;19913;-77
2022/08/31 01:12:55;;;;;;;;;;;16.50;99.90;;;;;;5076826;28;20095;-74
2022/08/31 01:15:21;;;;;;;;;;;16.40;99.90;;;;;;5064307;28;20003;-75
2022/08/31 01:17:47;;;;;;;;;;;16.40;99.90;;;;;;5059975;28;19913;-76
2022/08/31 01:20:16;;;;;;;;;;;16.40;99.90;;;;;;5076358;28;19920;-75
2022/08/31 01:22:51;;;;;;;;;;;16.40;99.90;;;;;;5058350;28;19908;-76
2022/08/31 01:25:17;;;;;;;;;;;16.40;99.90;;;;;;5077449;28;19912;-76
2022/08/31 01:27:43;;;;;;;;;;;16.40;99.90;;;;;;5077079;28;19912;-80
2022/08/31 01:30:10;;;;;;;;;;;16.40;99.90;;;;;;5076071;28;19908;-76
2022/08/31 01:32:36;;;;;;;;;;;16.40;99.90;;;;;;5076672;28;20315;-76
2022/08/31 01:35:03;;;;;;;;;;;16.30;99.90;;;;;;5074248;28;19915;-77
2022/08/31 01:37:28;;;;;;;;;;;16.30;99.90;;;;;;5093223;28;19951;-75
2022/08/31 01:39:54;;;;;;;;;;;16.30;99.90;;;;;;5073624;28;19944;-79
2022/08/31 01:42:19;;;;;;;;;;;16.30;99.90;;;;;;5076405;28;19916;-76
2022/08/31 01:44:45;;;;;;;;;;;16.30;99.90;;;;;;5076596;28;19924;-76
2022/08/31 01:47:11;;;;;;;;;;;16.30;99.90;;;;;;5059567;28;19908;-80
2022/08/31 01:49:36;;;;;;;;;;;16.30;99.90;;;;;;5076279;28;19978;-75
2022/08/31 01:52:02;;;;;;;;;;;16.30;99.90;;;;;;5057466;28;19962;-77
2022/08/31 01:54:28;;;;;;;;;;;16.20;99.90;;;;;;5053056;28;20011;-81
2022/08/31 01:56:54;;;;;;;;;;;16.20;99.90;;;;;;5045540;28;20003;-75
2022/08/31 01:59:20;;;;;;;;;;;16.20;99.90;;;;;;5048505;28;20379;-75
2022/08/31 02:01:48;;;;;;;;;;;16.20;99.90;;;;;;5052763;28;19913;-75
2022/08/31 02:04:14;;;;;;;;;;;16.20;99.90;;;;;;5048906;28;19913;-74
2022/08/31 02:06:41;;;;;;;;;;;16.20;99.90;;;;;;5055193;28;20258;-74
2022/08/31 02:09:07;;;;;;;;;;;16.20;99.90;;;;;;5056873;28;19908;-75
2022/08/31 02:11:32;;;;;;;;;;;16.20;99.90;;;;;;5055569;28;19924;-84
2022/08/31 02:13:58;;;;;;;;;;;16.10;99.90;;;;;;5055266;28;19955;-76
2022/08/31 02:16:24;;;;;;;;;;;16.10;99.90;;;;;;5056782;28;19948;-75
2022/08/31 02:18:50;;;;;;;;;;;16.10;99.90;;;;;;5054899;28;19929;-79
2022/08/31 02:21:15;;;;;;;;;;;16.10;99.90;;;;;;5056482;28;20368;-75
2022/08/31 02:23:41;;;;;;;;;;;16.10;99.90;;;;;;5055887;28;19916;-77
2022/08/31 02:26:07;;;;;;;;;;;16.10;99.90;;;;;;5055652;28;19996;-75
2022/08/31 02:28:33;;;;;;;;;;;16.10;99.90;;;;;;5055885;28;20304;-76
2022/08/31 02:30:58;;;;;;;;;;;16.10;99.90;;;;;;5054924;28;19920;-76
2022/08/31 02:33:24;;;;;;;;;;;16.00;99.90;;;;;;5056476;28;19951;-78
2022/08/31 02:35:50;;;;;;;;;;;16.00;99.90;;;;;;5084891;28;19917;-79
2022/08/31 02:38:16;;;;;;;;;;;16.00;99.90;;;;;;5052677;28;20326;-79
2022/08/31 02:40:42;;;;;;;;;;;16.00;99.90;;;;;;5054622;28;19917;-76
2022/08/31 02:43:08;;;;;;;;;;;15.90;99.90;;;;;;5054807;28;19924;-75
2022/08/31 02:45:34;;;;;;;;;;;15.90;99.90;;;;;;5053983;28;19920;-75
2022/08/31 02:47:59;;;;;;;;;;;15.90;99.90;;;;;;5051577;28;19920;-80
2022/08/31 02:50:25;;;;;;;;;;;15.90;99.90;;;;;;5055052;28;19917;-75
2022/08/31 02:52:54;;;;;;;;;;;15.80;99.90;;;;;;5051349;28;20314;-75
2022/08/31 02:55:20;;;;;;;;;;;15.90;99.90;;;;;;5036103;28;19909;-76
2022/08/31 02:57:46;;;;;;;;;;;15.80;99.90;;;;;;5041448;28;19920;-75
2022/08/31 03:00:12;;;;;;;;;;;15.80;99.90;;;;;;5033677;28;19967;-76
2022/08/31 03:02:38;;;;;;;;;;;15.80;99.90;;;;;;5042620;28;19912;-76
2022/08/31 03:05:06;;;;;;;;;;;15.80;99.90;;;;;;5069517;28;19921;-79
2022/08/31 03:07:33;;;;;;;;;;;15.80;99.90;;;;;;5038372;28;19921;-75
2022/08/31 03:09:59;;;;;;;;;;;15.80;99.90;;;;;;5029974;28;19909;-75
2022/08/31 03:12:25;;;;;;;;;;;15.80;99.90;;;;;;5035921;28;19917;-75
2022/08/31 03:14:51;;;;;;;;;;;15.80;99.90;;;;;;5035209;28;19917;-75
2022/08/31 03:17:16;;;;;;;;;;;15.80;99.90;;;;;;5030866;28;19909;-75
2022/08/31 03:19:42;;;;;;;;;;;15.70;99.90;;;;;;5024123;28;19917;-80
2022/08/31 03:22:07;;;;;;;;;;;15.70;99.90;;;;;;5018716;28;20332;-80
2022/08/31 03:24:33;;;;;;;;;;;15.70;99.90;;;;;;5042222;28;19916;-75
2022/08/31 03:26:58;;;;;;;;;;;15.70;99.90;;;;;;5036388;28;19909;-75
2022/08/31 03:29:24;;;;;;;;;;;15.70;99.90;;;;;;5030037;28;19914;-75
2022/08/31 03:31:50;;;;;;;;;;;15.70;99.90;;;;;;5038228;28;19917;-76
2022/08/31 03:34:15;;;;;;;;;;;15.60;99.90;;;;;;5029054;28;20035;-75
2022/08/31 03:36:41;;;;;;;;;;;15.60;99.90;;;;;;5033152;28;19913;-78
2022/08/31 03:39:06;;;;;;;;;;;15.60;99.90;;;;;;5045955;28;19939;-75
2022/08/31 03:41:32;;;;;;;;;;;15.70;99.90;;;;;;5034136;28;20306;-74
2022/08/31 03:44:00;;;;;;;;;;;15.70;99.90;;;;;;5033375;28;19939;-75
2022/08/31 03:46:27;;;;;;;;;;;15.60;99.90;;;;;;5030399;28;20007;-75
2022/08/31 03:48:53;;;;;;;;;;;15.60;99.90;;;;;;5034234;28;20465;-82
2022/08/31 03:51:19;;;;;;;;;;;15.60;99.90;;;;;;5034006;28;19917;-75
2022/08/31 03:53:44;;;;;;;;;;;15.50;99.90;;;;;;5056169;28;19920;-75
2022/08/31 03:56:10;;;;;;;;;;;15.60;99.90;;;;;;5070133;28;19916;-77
2022/08/31 03:58:36;;;;;;;;;;;15.60;99.90;;;;;;5055831;28;20333;-76
2022/08/31 04:01:02;;;;;;;;;;;15.60;99.90;;;;;;5052456;28;19946;-75
2022/08/31 04:03:28;;;;;;;;;;;15.60;99.90;;;;;;5068644;28;20234;-75
2022/08/31 04:05:53;;;;;;;;;;;15.60;99.90;;;;;;5071469;28;19931;-80
2022/08/31 04:08:19;;;;;;;;;;;15.50;99.90;;;;;;5054769;28;20387;-75
2022/08/31 04:10:46;;;;;;;;;;;15.50;99.90;;;;;;5085661;28;19944;-77
2022/08/31 04:13:12;;;;;;;;;;;15.50;99.90;;;;;;5054551;28;19998;-74
2022/08/31 04:15:38;;;;;;;;;;;15.40;99.90;;;;;;5070386;28;19955;-74
2022/08/31 04:18:04;;;;;;;;;;;15.40;99.90;;;;;;5073445;28;19933;-75
2022/08/31 04:20:37;;;;;;;;;;;15.30;99.90;;;;;;5054932;28;20196;-75
2022/08/31 04:23:02;;;;;;;;;;;15.30;99.90;;;;;;5044015;28;19924;-81
2022/08/31 04:25:28;;;;;;;;;;;15.20;99.90;;;;;;5066792;28;19909;-74
2022/08/31 04:27:55;;;;;;;;;;;15.20;99.90;;;;;;5051320;28;19913;-80
2022/08/31 04:30:21;;;;;;;;;;;15.10;99.90;;;;;;5050441;28;19909;-82
2022/08/31 04:32:47;;;;;;;;;;;15.00;99.90;;;;;;5040240;28;19913;-74
2022/08/31 04:35:13;;;;;;;;;;;15.10;99.90;;;;;;5068049;28;19922;-75
2022/08/31 04:37:40;;;;;;;;;;;15.00;99.90;;;;;;5068390;28;19951;-75
2022/08/31 04:40:16;;;;;;;;;;;14.90;99.90;;;;;;5067017;28;19923;-75
2022/08/31 04:42:43;;;;;;;;;;;14.90;99.90;;;;;;5064531;28;19920;-76
2022/08/31 04:45:08;;;;;;;;;;;14.80;99.90;;;;;;5060179;28;20326;-77
2022/08/31 04:47:34;;;;;;;;;;;14.80;99.90;;;;;;5073605;28;19998;-75
2022/08/31 04:50:00;;;;;;;;;;;14.70;99.90;;;;;;5053672;28;19916;-74
2022/08/31 04:52:25;;;;;;;;;;;14.70;99.90;;;;;;5043960;28;20247;-74
2022/08/31 04:54:51;;;;;;;;;;;14.70;99.90;;;;;;5052955;28;20358;-74
2022/08/31 04:57:16;;;;;;;;;;;14.60;99.90;;;;;;5074033;28;20414;-75
2022/08/31 04:59:42;;;;;;;;;;;14.60;99.90;;;;;;5055795;28;19920;-75
2022/08/31 05:02:07;;;;;;;;;;;14.60;99.90;;;;;;5070671;28;19967;-74
2022/08/31 05:04:33;;;;;;;;;;;14.50;99.90;;;;;;5066694;28;19961;-76
2022/08/31 05:06:58;;;;;;;;;;;14.50;99.90;;;;;;5088954;28;19916;-75
2022/08/31 05:09:24;;;;;;;;;;;14.40;99.90;;;;;;5074063;28;19958;-74
2022/08/31 05:11:51;;;;;;;;;;;14.40;99.90;;;;;;5073511;28;20297;-75
2022/08/31 05:14:17;;;;;;;;;;;14.40;99.90;;;;;;5073887;28;19916;-75
2022/08/31 05:16:42;;;;;;;;;;;14.30;99.90;;;;;;5073787;28;19908;-75
2022/08/31 05:19:08;;;;;;;;;;;14.30;99.90;;;;;;5058274;28;20318;-75
2022/08/31 05:21:35;;;;;;;;;;;14.30;99.90;;;;;;5056151;28;19912;-75
2022/08/31 05:24:19;;;;;;;;;;;14.30;99.90;;;;;;5073498;28;19987;-74
2022/08/31 05:26:49;;;;;;;;;;;14.30;99.90;;;;;;5062015;28;19909;-74
2022/08/31 05:29:15;;;;;;;;;;;14.30;99.90;;;;;;5068171;28;19909;-75
2022/08/31 05:31:42;;;;;;;;;;;14.30;99.90;;;;;;5071581;28;19912;-74
2022/08/31 05:34:08;;;;;;;;;;;14.30;99.90;;;;;;5059435;28;19924;-74
2022/08/31 05:36:34;;;;;;;;;;;14.30;99.90;;;;;;5061321;28;19920;-75
2022/08/31 05:39:00;;;;;;;;;;;14.30;99.90;;;;;;5076224;28;20258;-74
2022/08/31 05:41:26;;;;;;;;;;;14.40;99.90;;;;;;5061227;28;19920;-73
2022/08/31 05:43:52;;;;;;;;;;;14.40;99.90;;;;;;5076328;28;20422;-74
2022/08/31 05:46:17;;;;;;;;;;;14.40;99.90;;;;;;5074859;28;20003;-74
2022/08/31 05:48:43;;;;;;;;;;;14.40;99.90;;;;;;5062737;28;20258;-74
2022/08/31 05:51:11;;;;;;;;;;;14.40;99.90;;;;;;5073667;28;19952;-75
2022/08/31 05:53:37;;;;;;;;;;;14.40;99.90;;;;;;5073737;28;19924;-75
2022/08/31 05:56:09;;;;;;;;;;;14.50;99.90;;;;;;5048937;28;20571;-76
2022/08/31 05:58:35;;;;;;;;;;;14.50;99.90;;;;;;5064739;28;19920;-74
2022/08/31 06:01:02;;;;;;;;;;;14.50;99.90;;;;;;5065022;28;19963;-81
2022/08/31 06:03:28;;;;;;;;;;;14.50;99.90;;;;;;5074576;28;20373;-75
2022/08/31 06:05:54;;;;;;;;;;;14.60;99.90;;;;;;5076184;28;19916;-74
2022/08/31 06:08:20;;;;;;;;;;;14.60;99.90;;;;;;5075776;28;19917;-75
2022/08/31 06:10:45;;;;;;;;;;;14.70;99.90;;;;;;5076056;28;19969;-81
2022/08/31 06:13:17;;;;;;;;;;;14.70;99.90;;;;;;5074735;28;19999;-76
2022/08/31 06:15:43;;;;;;;;;;;14.70;99.90;;;;;;5075266;28;19920;-75
2022/08/31 06:18:09;;;;;;;;;;;14.70;99.90;;;;;;5075611;28;19913;-74
2022/08/31 06:20:38;;;;;;;;;;;14.70;99.90;;;;;;5075584;28;19917;-76
2022/08/31 06:23:04;;;;;;;;;;;14.80;99.90;;;;;;5074333;28;19921;-74
2022/08/31 06:25:30;;;;;;;;;;;14.80;99.90;;;;;;5074646;28;19924;-74
2022/08/31 06:27:58;;;;;;;;;;;14.80;99.90;;;;;;5063659;28;20219;-74
2022/08/31 06:30:26;;;;;;;;;;;14.90;99.90;;;;;;5064638;28;19920;-75
2022/08/31 06:32:54;;;;;;;;;;;15.00;99.90;;;;;;5058209;28;19916;-74
2022/08/31 06:35:20;;;;;;;;;;;15.00;99.90;;;;;;5092410;28;19962;-75
2022/08/31 06:37:46;;;;;;;;;;;15.10;99.90;;;;;;5075104;28;20004;-74
2022/08/31 06:40:11;;;;;;;;;;;15.10;99.90;;;;;;5076244;28;19912;-74
2022/08/31 06:42:37;;;;;;;;;;;15.10;99.90;;;;;;5058082;28;20256;-75
2022/08/31 06:45:04;;;;;;;;;;;15.20;99.90;;;;;;5076425;28;19913;-75
2022/08/31 06:47:29;;;;;;;;;;;15.30;99.90;;;;;;5075740;28;19913;-74
2022/08/31 06:49:56;;;;;;;;;;;15.40;99.90;;;;;;5074847;28;19913;-76
2022/08/31 06:52:22;;;;;;;;;;;15.40;99.90;;;;;;5058268;28;19927;-74
2022/08/31 06:54:48;;;;;;;;;;;15.50;99.90;;;;;;5075153;28;19920;-75
2022/08/31 06:57:13;;;;;;;;;;;15.50;99.90;;;;;;5075535;28;19913;-74
2022/08/31 06:59:39;;;;;;;;;;;15.70;99.90;;;;;;5073673;28;19959;-75
2022/08/31 07:02:04;;;;;;;;;;;15.70;99.90;;;;;;5058170;28;19962;-74
2022/08/31 07:04:32;;;;;;;;;;;15.70;99.90;;;;;;5065050;28;19912;-75
2022/08/31 07:06:57;;;;;;;;;;;15.90;99.90;;;;;;5059415;28;19918;-75
2022/08/31 07:09:23;;;;;;;;;;;16.10;99.90;;;;;;5073723;28;20015;-76
2022/08/31 07:11:50;;;;;;;;;;;16.40;99.90;;;;;;5060543;28;20299;-74
2022/08/31 07:14:18;;;;;;;;;;;16.80;99.90;;;;;;5074067;28;19947;-74
2022/08/31 07:16:44;;;;;;;;;;;17.10;99.90;;;;;;5073440;28;20188;-74
2022/08/31 07:19:10;;;;;;;;;;;17.30;99.90;;;;;;5073491;28;19924;-74
2022/08/31 07:21:39;;;;;;;;;;;17.60;99.90;;;;;;5072996;28;19916;-76
2022/08/31 07:24:05;;;;;;;;;;;17.90;99.90;;;;;;5060515;28;19917;-82
2022/08/31 07:26:36;;;;;;;;;;;18.20;99.90;;;;;;5072378;28;19970;-74
2022/08/31 07:29:05;;;;;;;;;;;18.30;99.90;;;;;;5072359;28;19913;-74
2022/08/31 07:31:41;;;;;;;;;;;18.30;99.90;;;;;;5074030;28;20350;-74
2022/08/31 07:34:09;;;;;;;;;;;18.40;99.90;;;;;;5073058;28;20597;-74
2022/08/31 07:42:07;;;;;;;;;;;18.30;99.90;;;;;;5085729;28;20543;-82
2022/08/31 07:42:08;;;;;;;;;;;18.50;99.90;;;;;;5070850;28;19927;-74
2022/08/31 07:44:34;;;;;;;;;;;18.60;99.90;;;;;;5045020;28;19920;-81
2022/08/31 07:46:59;;;;;;;;;;;18.70;99.90;;;;;;5058392;28;19939;-74
2022/08/31 07:49:25;;;;;;;;;;;18.80;99.90;;;;;;5062791;28;19919;-73
2022/08/31 07:51:51;;;;;;;;;;;18.90;99.90;;;;;;5089263;28;19923;-75
2022/08/31 07:54:22;;;;;;;;;;;19.00;99.90;;;;;;5071499;28;19917;-76
2022/08/31 07:56:49;;;;;;;;;;;19.10;99.90;;;;;;5041843;28;19917;-75
2022/08/31 07:59:15;;;;;;;;;;;19.30;99.90;;;;;;5067486;28;19931;-74
2022/08/31 08:01:42;;;;;;;;;;;19.20;99.90;;;;;;5070820;28;19973;-75
2022/08/31 08:04:07;;;;;;;;;;;19.30;99.90;;;;;;5052833;28;19917;-75
2022/08/31 08:06:33;;;;;;;;;;;19.40;99.90;;;;;;5073061;28;19935;-76
2022/08/31 08:09:04;;;;;;;;;;;19.60;99.90;;;;;;5052261;28;19920;-76
2022/08/31 08:11:31;;;;;;;;;;;19.60;99.90;;;;;;5056336;28;19913;-76
2022/08/31 08:13:56;;;;;;;;;;;19.70;99.90;;;;;;5079284;28;19925;-76
2022/08/31 08:16:22;;;;;;;;;;;19.80;99.90;;;;;;5073703;28;19921;-77
2022/08/31 08:18:47;;;;;;;;;;;19.80;99.90;;;;;;5073985;28;20005;-78
2022/08/31 08:21:13;;;;;;;;;;;19.80;99.90;;;;;;5071968;28;20283;-74
2022/08/31 08:23:39;;;;;;;;;;;19.70;99.90;;;;;;5070037;28;20205;-74
2022/08/31 08:26:08;;;;;;;;;;;19.60;99.90;;;;;;5073333;28;19924;-80
2022/08/31 08:28:34;;;;;;;;;;;19.70;99.90;;;;;;5073093;28;19921;-76
2022/08/31 08:31:00;;;;;;;;;;;19.70;99.90;;;;;;5072003;28;19969;-75
2022/08/31 08:33:29;;;;;;;;;;;19.60;99.90;;;;;;5072772;28;20167;-74
2022/08/31 08:35:59;;;;;;;;;;;19.60;99.90;;;;;;5072302;28;19920;-76
2022/08/31 08:38:25;;;;;;;;;;;19.60;99.90;;;;;;5071169;28;19968;-74
2022/08/31 08:40:52;;;;;;;;;;;19.80;99.90;;;;;;5063133;28;19917;-77
2022/08/31 08:43:19;;;;;;;;;;;19.80;99.90;;;;;;5071933;28;19962;-75
2022/08/31 08:45:47;;;;;;;;;;;19.60;99.90;;;;;;5062884;28;19974;-76
2022/08/31 08:48:16;;;;;;;;;;;19.50;99.90;;;;;;5071808;28;19917;-75
2022/08/31 08:50:41;;;;;;;;;;;19.50;99.90;;;;;;5059906;28;20000;-79
2022/08/31 08:53:09;;;;;;;;;;;19.50;99.90;;;;;;5060207;28;20031;-75
2022/08/31 08:55:40;;;;;;;;;;;19.50;99.90;;;;;;5072738;28;19921;-76
2022/08/31 08:58:08;;;;;;;;;;;19.60;99.90;;;;;;5071674;28;19921;-77
2022/08/31 09:00:33;;;;;;;;;;;19.60;99.90;;;;;;5060354;28;20334;-75
2022/08/31 09:03:06;;;;;;;;;;;19.70;99.90;;;;;;5062446;28;19912;-76
2022/08/31 09:06:00;;;;;;;;;;;19.90;99.90;;;;;;5061528;28;19919;-75
2022/08/31 09:08:27;;;;;;;;;;;20.20;99.90;;;;;;5055581;28;19920;-74
2022/08/31 09:11:03;;;;;;;;;;;20.20;99.90;;;;;;5071238;28;19916;-78
2022/08/31 09:13:36;;;;;;;;;;;20.30;99.90;;;;;;5074132;28;20315;-75
2022/08/31 09:16:24;;;;;;;;;;;20.50;99.90;;;;;;5097268;28;19966;-75
2022/08/31 09:18:53;;;;;;;;;;;20.60;99.90;;;;;;5074167;28;19920;-75
2022/08/31 09:21:24;;;;;;;;;;;20.80;99.90;;;;;;5075850;28;19913;-76
2022/08/31 09:24:00;;;;;;;;;;;21.00;99.90;;;;;;5064067;28;19917;-84
2022/08/31 09:26:26;;;;;;;;;;;21.10;99.90;;;;;;5076044;28;19912;-76
2022/08/31 09:28:52;;;;;;;;;;;21.30;99.90;;;;;;5076246;28;19947;-76
2022/08/31 09:31:45;;;;;;;;;;;21.30;99.90;;;;;;5076109;28;19916;-77
2022/08/31 09:34:28;;;;;;;;;;;21.20;99.90;;;;;;5060019;28;19920;-77
2022/08/31 09:37:14;;;;;;;;;;;21.20;99.80;;;;;;5073925;28;20307;-75
2022/08/31 09:39:41;;;;;;;;;;;21.30;99.90;;;;;;5075844;28;19927;-74
2022/08/31 09:42:30;;;;;;;;;;;21.40;99.90;;;;;;5075993;28;20318;-75
2022/08/31 09:45:00;;;;;;;;;;;21.50;99.90;;;;;;5075801;28;19916;-75
2022/08/31 09:47:36;;;;;;;;;;;21.50;99.90;;;;;;5063303;28;19923;-76
2022/08/31 09:50:07;;;;;;;;;;;21.50;99.50;;;;;;5073767;28;19913;-77
2022/08/31 09:55:23;;;;;;;;;;;21.40;99.90;;;;;;5076004;28;19932;-76
2022/08/31 09:57:51;;;;;;;;;;;21.60;99.90;;;;;;5073472;28;19921;-79
2022/08/31 10:00:25;;;;;;;;;;;21.70;99.90;;;;;;5075317;28;19931;-79
2022/08/31 10:02:55;;;;;;;;;;;21.80;98.90;;;;;;5096415;28;20261;-77
2022/08/31 10:05:39;;;;;;;;;;;22.00;99.90;;;;;;5074804;28;19913;-75
2022/08/31 10:08:28;;;;;;;;;;;21.90;99.10;;;;;;5062333;28;19916;-74
2022/08/31 10:10:57;;;;;;;;;;;21.70;99.60;;;;;;5057298;28;20426;-76
2022/08/31 10:13:46;;;;;;;;;;;21.80;99.80;;;;;;5072393;28;19913;-77
2022/08/31 10:16:24;;;;;;;;;;;22.00;98.70;;;;;;5056642;28;19927;-77
2022/08/31 10:18:51;;;;;;;;;;;22.00;99.20;;;;;;5074228;28;19916;-76
2022/08/31 10:21:20;;;;;;;;;;;22.20;99.00;;;;;;5074816;28;19924;-76
2022/08/31 10:23:55;;;;;;;;;;;22.20;99.00;;;;;;5072861;28;21188;-78
2022/08/31 10:26:36;;;;;;;;;;;22.10;97.60;;;;;;5073503;28;19923;-79
2022/08/31 10:29:05;;;;;;;;;;;22.00;97.30;;;;;;5062740;28;20291;-78
2022/08/31 10:31:37;;;;;;;;;;;22.00;97.00;;;;;;5073740;28;19916;-74
2022/08/31 10:36:52;;;;;;;;;;;22.10;96.90;;;;;;5075924;28;19923;-77
2022/08/31 10:39:32;;;;;;;;;;;22.20;97.70;;;;;;5064008;28;19969;-77
2022/08/31 10:42:04;;;;;;;;;;;22.30;96.80;;;;;;5074461;28;20008;-77
2022/08/31 10:44:43;;;;;;;;;;;22.30;97.00;;;;;;5062559;28;19920;-78
2022/08/31 10:47:11;;;;;;;;;;;22.30;97.30;;;;;;5075352;28;19920;-76
2022/08/31 10:49:37;;;;;;;;;;;22.40;96.40;;;;;;5073194;28;19916;-76
2022/08/31 10:52:12;;;;;;;;;;;22.40;96.80;;;;;;5074659;28;19917;-77
2022/08/31 10:54:48;;;;;;;;;;;22.40;96.40;;;;;;5060817;28;20374;-76
2022/08/31 10:57:32;;;;;;;;;;;22.40;96.40;;;;;;5063934;28;19913;-76
2022/08/31 11:00:01;;;;;;;;;;;22.30;96.00;;;;;;5064188;28;19929;-78
2022/08/31 11:02:48;;;;;;;;;;;22.30;97.10;;;;;;5064561;28;19923;-74
2022/08/31 11:05:34;;;;;;;;;;;22.50;96.50;;;;;;5059173;28;19960;-78
2022/08/31 11:08:02;;;;;;;;;;;22.70;96.60;;;;;;5062984;28;19956;-76
2022/08/31 11:10:37;;;;;;;;;;;22.70;96.30;;;;;;5064564;28;20319;-78
2022/08/31 11:13:05;;;;;;;;;;;22.60;96.00;;;;;;5064238;28;19916;-77
2022/08/31 11:15:55;;;;;;;;;;;22.50;96.30;;;;;;5060637;28;19939;-78
2022/08/31 11:18:49;;;;;;;;;;;22.50;96.40;;;;;;5064450;28;19917;-79
2022/08/31 11:21:16;;;;;;;;;;;22.90;96.10;;;;;;5055479;28;19916;-76
2022/08/31 11:24:00;;;;;;;;;;;22.90;95.00;;;;;;5054857;28;19908;-78
2022/08/31 11:26:37;;;;;;;;;;;22.90;94.60;;;;;;5050291;28;19913;-75
2022/08/31 11:29:22;;;;;;;;;;;22.80;94.80;;;;;;5053019;28;20215;-78
2022/08/31 11:31:48;;;;;;;;;;;22.80;95.60;;;;;;5049605;28;19919;-79
2022/08/31 11:34:24;;;;;;;;;;;22.80;94.80;;;;;;5049020;28;19952;-76
2022/08/31 11:36:50;;;;;;;;;;;22.90;95.70;;;;;;5044720;28;19924;-76
2022/08/31 11:39:21;;;;;;;;;;;23.10;95.20;;;;;;5048843;28;19922;-79
2022/08/31 11:41:50;;;;;;;;;;;23.00;93.40;;;;;;5051290;28;19913;-77
2022/08/31 11:44:32;;;;;;;;;;;23.00;94.80;;;;;;5050371;28;19921;-79
2022/08/31 11:47:01;;;;;;;;;;;23.00;94.00;;;;;;5060411;28;19923;-77
2022/08/31 11:49:47;;;;;;;;;;;23.10;92.80;;;;;;5060980;28;19923;-75
2022/08/31 11:52:35;;;;;;;;;;;22.90;92.90;;;;;;5063463;28;19923;-79
2022/08/31 11:55:09;;;;;;;;;;;23.10;93.20;;;;;;5061696;28;19997;-80
2022/08/31 11:57:58;;;;;;;;;;;23.30;92.90;;;;;;5061381;28;19920;-78
2022/08/31 12:00:39;;;;;;;;;;;23.20;92.60;;;;;;5059020;28;19928;-78
2022/08/31 12:03:08;;;;;;;;;;;23.20;92.20;;;;;;5063103;28;20019;-77
2022/08/31 12:05:55;;;;;;;;;;;23.10;92.00;;;;;;5058318;28;19912;-79
2022/08/31 12:08:22;;;;;;;;;;;23.10;93.00;;;;;;5060085;28;19916;-77
2022/08/31 12:11:03;;;;;;;;;;;23.00;93.10;;;;;;5060181;28;19928;-78
2022/08/31 12:13:44;;;;;;;;;;;23.00;93.50;;;;;;5061355;28;19913;-77
2022/08/31 12:16:20;;;;;;;;;;;23.10;93.00;;;;;;5061422;28;19959;-74
2022/08/31 12:19:07;;;;;;;;;;;23.20;92.40;;;;;;5062105;28;19920;-81
2022/08/31 12:24:43;;;;;;;;;;;23.10;92.70;;;;;;5060077;28;19920;-79
2022/08/31 12:27:18;;;;;;;;;;;23.20;92.70;;;;;;5057263;28;19912;-80
2022/08/31 12:29:44;;;;;;;;;;;23.30;93.20;;;;;;5060330;28;19939;-77
2022/08/31 12:32:25;;;;;;;;;;;23.30;93.20;;;;;;5056063;28;19916;-74
2022/08/31 12:34:50;;;;;;;;;;;23.20;91.20;;;;;;5061850;28;19995;-81
2022/08/31 12:37:26;;;;;;;;;;;23.20;92.00;;;;;;5062431;28;20070;-78
2022/08/31 12:40:06;;;;;;;;;;;23.40;93.10;;;;;;5060588;28;20011;-79
2022/08/31 12:42:37;;;;;;;;;;;23.40;91.50;;;;;;5062743;28;19917;-78
2022/08/31 12:45:03;;;;;;;;;;;23.50;91.80;;;;;;5058885;28;19916;-82
2022/08/31 12:47:36;;;;;;;;;;;23.40;92.10;;;;;;5066652;28;19923;-77
2022/08/31 12:50:16;;;;;;;;;;;23.40;91.30;;;;;;5063885;28;20385;-80
2022/08/31 12:52:51;;;;;;;;;;;23.50;91.80;;;;;;5065232;28;19958;-75
2022/08/31 12:55:34;;;;;;;;;;;23.70;91.60;;;;;;5066150;28;19923;-81
2022/08/31 12:58:11;;;;;;;;;;;23.90;91.90;;;;;;5077138;28;19912;-76
2022/08/31 13:00:38;;;;;;;;;;;23.90;91.20;;;;;;5077649;28;19928;-78
2022/08/31 13:03:12;;;;;;;;;;;23.80;91.50;;;;;;5077259;28;19921;-80
2022/08/31 13:05:38;;;;;;;;;;;23.70;90.80;;;;;;5075696;28;19987;-76
2022/08/31 13:08:24;;;;;;;;;;;23.70;92.10;;;;;;5065697;28;20304;-76
2022/08/31 13:10:50;;;;;;;;;;;23.70;90.80;;;;;;5076574;28;19947;-75
2022/08/31 13:13:27;;;;;;;;;;;23.60;91.70;;;;;;5073100;28;19912;-79
2022/08/31 13:16:03;;;;;;;;;;;23.70;91.10;;;;;;5075774;28;19970;-76
2022/08/31 13:18:29;;;;;;;;;;;23.70;91.60;;;;;;5076114;28;19913;-76
2022/08/31 13:21:04;;;;;;;;;;;23.80;91.00;;;;;;5058821;28;19948;-76
2022/08/31 13:23:33;;;;;;;;;;;23.70;91.50;;;;;;5075729;28;20030;-78
2022/08/31 13:26:01;;;;;;;;;;;23.70;90.80;;;;;;5095243;28;19961;-77
2022/08/31 13:28:29;;;;;;;;;;;23.70;90.90;;;;;;5077128;28;20300;-75
2022/08/31 13:30:56;;;;;;;;;;;23.70;91.30;;;;;;5060354;28;20038;-76
2022/08/31 13:33:32;;;;;;;;;;;23.80;91.50;;;;;;5073062;28;19966;-79
2022/08/31 13:36:30;;;;;;;;;;;23.90;92.00;;;;;;5076342;28;19927;-75
2022/08/31 13:38:56;;;;;;;;;;;23.90;90.90;;;;;;5074594;28;20258;-81
2022/08/31 13:41:26;;;;;;;;;;;24.00;90.90;;;;;;5074943;28;19970;-75
2022/08/31 13:43:57;;;;;;;;;;;23.80;90.10;;;;;;5078826;28;20219;-77
2022/08/31 13:46:48;;;;;;;;;;;23.80;90.80;;;;;;5077855;28;19916;-77
2022/08/31 13:49:28;;;;;;;;;;;23.90;90.90;;;;;;5077861;28;20387;-77
2022/08/31 13:51:54;;;;;;;;;;;24.00;90.40;;;;;;5078294;28;19991;-76
2022/08/31 13:54:28;;;;;;;;;;;24.00;90.90;;;;;;5064532;28;20028;-77
2022/08/31 13:56:53;;;;;;;;;;;24.10;90.00;;;;;;5076995;28;20192;-74
2022/08/31 13:59:22;;;;;;;;;;;23.90;90.40;;;;;;5075342;28;19926;-76
2022/08/31 14:02:00;;;;;;;;;;;23.80;91.00;;;;;;5072715;28;20311;-77
2022/08/31 14:04:42;;;;;;;;;;;23.80;90.70;;;;;;5072435;28;19962;-76
2022/08/31 14:07:25;;;;;;;;;;;23.70;90.50;;;;;;5074132;28;19917;-77
2022/08/31 14:09:51;;;;;;;;;;;23.60;91.90;;;;;;5075465;28;19912;-77
2022/08/31 14:12:34;;;;;;;;;;;23.60;91.00;;;;;;5075410;28;19920;-80
2022/08/31 14:15:08;;;;;;;;;;;23.70;90.80;;;;;;5070223;28;19924;-77
2022/08/31 14:17:35;;;;;;;;;;;23.90;91.60;;;;;;5067998;28;20193;-79
2022/08/31 14:20:19;;;;;;;;;;;23.90;90.70;;;;;;5065072;28;19935;-76
2022/08/31 14:22:48;;;;;;;;;;;23.80;91.20;;;;;;5063438;28;19921;-79
2022/08/31 14:25:18;;;;;;;;;;;23.80;90.80;;;;;;5066918;28;19912;-81
2022/08/31 14:27:44;;;;;;;;;;;23.90;91.10;;;;;;5051485;28;19913;-81
2022/08/31 14:30:10;;;;;;;;;;;23.80;91.10;;;;;;5068876;28;19969;-75
2022/08/31 14:32:36;;;;;;;;;;;23.80;90.40;;;;;;5069825;28;19912;-80
2022/08/31 14:35:06;;;;;;;;;;;23.80;90.30;;;;;;5054081;28;19913;-78
2022/08/31 14:37:31;;;;;;;;;;;23.80;91.50;;;;;;5069562;28;19921;-76
2022/08/31 14:40:00;;;;;;;;;;;23.90;91.70;;;;;;5066609;28;19923;-78
2022/08/31 14:42:31;;;;;;;;;;;23.90;90.90;;;;;;5068295;28;19932;-76
2022/08/31 14:44:58;;;;;;;;;;;23.90;90.40;;;;;;5051400;28;19912;-77